sensor_id;sensor_type;location;lat;lon;timestamp;pressure;altitude;pressure_sealevel;temperature;humidity
50123;BME280;36021;48.670;6.184;2023-03-12T00:02:01;98600.16;;;6.04;100.00
50123;BME280;36021;48.670;6.184;2023-03-12T00:04:30;98596.59;;;6.08;100.00
50123;BME280;36021;48.670;6.184;2023-03-12T00:06:57;98595.22;;;6.11;100.00
50123;BME280;36021;48.670;6.184;2023-03-12T00:09:23;98599.28;;;6.18;100.00
50123;BME280;36021;48.670;6.184;2023-03-12T00:11:49;98604.81;;;6.08;100.00
50123;BME280;36021;48.670;6.184;2023-03-12T00:14:14;98606.16;;;5.96;100.00
50123;BME280;36021;48.670;6.184;2023-03-12T00:16:42;98602.63;;;5.90;100.00
50123;BME280;36021;48.670;6.184;2023-03-12T00:19:11;98612.75;;;5.95;100.00
50123;BME280;36021;48.670;6.184;2023-03-12T00:21:39;98604.81;;;5.93;100.00
50123;BME280;36021;48.670;6.184;2023-03-12T00:24:06;98612.47;;;5.86;100.00
50123;BME280;36021;48.670;6.184;2023-03-12T00:26:32;98615.19;;;5.96;100.00
50123;BME280;36021;48.670;6.184;2023-03-12T00:28:58;98623.97;;;5.98;100.00
50123;BME280;36021;48.670;6.184;2023-03-12T00:31:26;98614.94;;;6.08;100.00
50123;BME280;36021;48.670;6.184;2023-03-12T00:33:53;98612.19;;;5.98;100.00
50123;BME280;36021;48.670;6.184;2023-03-12T00:36:21;98613.00;;;6.03;100.00
50123;BME280;36021;48.670;6.184;2023-03-12T00:38:51;98603.72;;;5.89;100.00
50123;BME280;36021;48.670;6.184;2023-03-12T00:41:17;98598.25;;;5.94;100.00
50123;BME280;36021;48.670;6.184;2023-03-12T00:43:48;98596.59;;;5.93;100.00
50123;BME280;36021;48.670;6.184;2023-03-12T00:46:14;98599.06;;;5.95;100.00
50123;BME280;36021;48.670;6.184;2023-03-12T00:48:40;98597.13;;;6.05;100.00
50123;BME280;36021;48.670;6.184;2023-03-12T00:51:06;98589.25;;;5.99;100.00
50123;BME280;36021;48.670;6.184;2023-03-12T00:53:34;98593.31;;;6.06;100.00
50123;BME280;36021;48.670;6.184;2023-03-12T00:56:01;98576.06;;;6.11;100.00
50123;BME280;36021;48.670;6.184;2023-03-12T00:58:30;98576.09;;;6.01;100.00
50123;BME280;36021;48.670;6.184;2023-03-12T01:00:56;98566.22;;;6.10;100.00
50123;BME280;36021;48.670;6.184;2023-03-12T01:03:23;98565.97;;;6.01;100.00
50123;BME280;36021;48.670;6.184;2023-03-12T01:05:49;98555.59;;;5.98;100.00
50123;BME280;36021;48.670;6.184;2023-03-12T01:08:20;98547.91;;;6.00;100.00
50123;BME280;36021;48.670;6.184;2023-03-12T01:10:47;98540.28;;;5.92;100.00
50123;BME280;36021;48.670;6.184;2023-03-12T01:13:12;98549.59;;;5.91;100.00
50123;BME280;36021;48.670;6.184;2023-03-12T01:15:38;98557.50;;;5.98;100.00
50123;BME280;36021;48.670;6.184;2023-03-12T01:18:03;98556.13;;;5.90;100.00
50123;BME280;36021;48.670;6.184;2023-03-12T01:20:29;98557.78;;;5.86;100.00
50123;BME280;36021;48.670;6.184;2023-03-12T01:22:55;98558.34;;;5.88;100.00
50123;BME280;36021;48.670;6.184;2023-03-12T01:25:21;98552.84;;;5.83;100.00
50123;BME280;36021;48.670;6.184;2023-03-12T01:27:46;98548.50;;;5.87;100.00
50123;BME280;36021;48.670;6.184;2023-03-12T01:30:13;98552.28;;;5.96;100.00
50123;BME280;36021;48.670;6.184;2023-03-12T01:32:38;98547.94;;;5.95;100.00
50123;BME280;36021;48.670;6.184;2023-03-12T01:35:04;98546.28;;;5.99;100.00
50123;BME280;36021;48.670;6.184;2023-03-12T01:37:31;98552.03;;;5.98;100.00
50123;BME280;36021;48.670;6.184;2023-03-12T01:39:57;98551.19;;;6.02;100.00
50123;BME280;36021;48.670;6.184;2023-03-12T01:42:23;98544.06;;;6.11;100.00
50123;BME280;36021;48.670;6.184;2023-03-12T01:45:01;98542.16;;;6.07;100.00
50123;BME280;36021;48.670;6.184;2023-03-12T01:47:30;98529.00;;;6.09;100.00
50123;BME280;36021;48.670;6.184;2023-03-12T01:50:01;98524.94;;;6.06;100.00
50123;BME280;36021;48.670;6.184;2023-03-12T01:52:32;98524.09;;;6.06;100.00
50123;BME280;36021;48.670;6.184;2023-03-12T01:55:14;98527.69;;;5.86;100.00
50123;BME280;36021;48.670;6.184;2023-03-12T01:57:54;98527.72;;;5.71;100.00
50123;BME280;36021;48.670;6.184;2023-03-12T02:00:24;98523.88;;;5.67;100.00
50123;BME280;36021;48.670;6.184;2023-03-12T02:02:56;98528.53;;;5.51;100.00
50123;BME280;36021;48.670;6.184;2023-03-12T02:05:28;98521.72;;;5.44;100.00
50123;BME280;36021;48.670;6.184;2023-03-12T02:07:57;98526.34;;;5.53;100.00
50123;BME280;36021;48.670;6.184;2023-03-12T02:10:24;98517.31;;;5.68;100.00
50123;BME280;36021;48.670;6.184;2023-03-12T02:12:51;98506.94;;;5.75;100.00
50123;BME280;36021;48.670;6.184;2023-03-12T02:15:17;98505.56;;;5.77;100.00
50123;BME280;36021;48.670;6.184;2023-03-12T02:17:44;98517.31;;;5.88;100.00
50123;BME280;36021;48.670;6.184;2023-03-12T02:20:20;98506.09;;;5.90;100.00
50123;BME280;36021;48.670;6.184;2023-03-12T02:22:56;98497.91;;;5.95;100.00
50123;BME280;36021;48.670;6.184;2023-03-12T02:25:40;98511.56;;;5.95;100.00
50123;BME280;36021;48.670;6.184;2023-03-12T02:28:11;98509.91;;;6.04;100.00
50123;BME280;36021;48.670;6.184;2023-03-12T02:30:39;98517.81;;;6.10;100.00
50123;BME280;36021;48.670;6.184;2023-03-12T02:33:08;98527.66;;;6.11;100.00
50123;BME280;36021;48.670;6.184;2023-03-12T02:35:35;98529.25;;;6.22;100.00
50123;BME280;36021;48.670;6.184;2023-03-12T02:38:01;98535.78;;;6.32;100.00
50123;BME280;36021;48.670;6.184;2023-03-12T02:40:41;98535.75;;;6.47;100.00
50123;BME280;36021;48.670;6.184;2023-03-12T02:43:10;98533.47;;;6.59;100.00
50123;BME280;36021;48.670;6.184;2023-03-12T02:45:37;98530.75;;;6.64;100.00
50123;BME280;36021;48.670;6.184;2023-03-12T02:48:07;98534.81;;;6.66;100.00
50123;BME280;36021;48.670;6.184;2023-03-12T02:50:33;98527.94;;;6.74;100.00
50123;BME280;36021;48.670;6.184;2023-03-12T02:52:59;98530.69;;;6.74;100.00
50123;BME280;36021;48.670;6.184;2023-03-12T02:55:25;98525.44;;;6.77;100.00
50123;BME280;36021;48.670;6.184;2023-03-12T02:57:52;98523.75;;;6.87;100.00
50123;BME280;36021;48.670;6.184;2023-03-12T03:00:18;98525.75;;;6.71;100.00
50123;BME280;36021;48.670;6.184;2023-03-12T03:02:48;98520.78;;;6.78;100.00
50123;BME280;36021;48.670;6.184;2023-03-12T03:05:17;98514.75;;;6.81;100.00
50123;BME280;36021;48.670;6.184;2023-03-12T03:07:45;98521.66;;;6.73;100.00
50123;BME280;36021;48.670;6.184;2023-03-12T03:10:12;98517.56;;;6.66;100.00
50123;BME280;36021;48.670;6.184;2023-03-12T03:12:39;98518.66;;;6.65;100.00
50123;BME280;36021;48.670;6.184;2023-03-12T03:15:07;98527.66;;;6.75;100.00
50123;BME280;36021;48.670;6.184;2023-03-12T03:17:32;98528.47;;;6.76;100.00
50123;BME280;36021;48.670;6.184;2023-03-12T03:19:58;98524.09;;;6.75;100.00
50123;BME280;36021;48.670;6.184;2023-03-12T03:22:24;98529.59;;;6.70;100.00
50123;BME280;36021;48.670;6.184;2023-03-12T03:24:49;98523.53;;;6.78;100.00
50123;BME280;36021;48.670;6.184;2023-03-12T03:27:17;98522.38;;;6.84;100.00
50123;BME280;36021;48.670;6.184;2023-03-12T03:29:45;98529.25;;;6.87;100.00
50123;BME280;36021;48.670;6.184;2023-03-12T03:32:11;98528.69;;;6.85;100.00
50123;BME280;36021;48.670;6.184;2023-03-12T03:34:38;98522.38;;;6.89;100.00
50123;BME280;36021;48.670;6.184;2023-03-12T03:37:04;98522.00;;;7.01;100.00
50123;BME280;36021;48.670;6.184;2023-03-12T03:39:33;98514.91;;;7.00;100.00
50123;BME280;36021;48.670;6.184;2023-03-12T03:42:00;98519.94;;;6.82;100.00
50123;BME280;36021;48.670;6.184;2023-03-12T03:44:29;98520.97;;;6.97;100.00
50123;BME280;36021;48.670;6.184;2023-03-12T03:46:55;98521.75;;;6.97;100.00
50123;BME280;36021;48.670;6.184;2023-03-12T03:49:21;98525.94;;;6.90;100.00
50123;BME280;36021;48.670;6.184;2023-03-12T03:51:47;98522.38;;;6.89;100.00
50123;BME280;36021;48.670;6.184;2023-03-12T03:54:21;98528.53;;;6.66;100.00
50123;BME280;36021;48.670;6.184;2023-03-12T03:56:47;98517.25;;;6.72;100.00
50123;BME280;36021;48.670;6.184;2023-03-12T03:59:12;98518.09;;;6.73;100.00
50123;BME280;36021;48.670;6.184;2023-03-12T04:01:40;98521.97;;;6.67;100.00
50123;BME280;36021;48.670;6.184;2023-03-12T04:04:07;98528.53;;;6.66;100.00
50123;BME280;36021;48.670;6.184;2023-03-12T04:06:34;98536.22;;;6.64;100.00
50123;BME280;36021;48.670;6.184;2023-03-12T04:09:00;98533.47;;;6.59;100.00
50123;BME280;36021;48.670;6.184;2023-03-12T04:11:28;98545.53;;;6.63;100.00
50123;BME280;36021;48.670;6.184;2023-03-12T04:13:56;98540.63;;;6.55;100.00
50123;BME280;36021;48.670;6.184;2023-03-12T04:16:24;98542.75;;;6.68;100.00
50123;BME280;36021;48.670;6.184;2023-03-12T04:18:52;98545.47;;;6.73;100.00
50123;BME280;36021;48.670;6.184;2023-03-12T04:21:18;98533.94;;;6.76;100.00
50123;BME280;36021;48.670;6.184;2023-03-12T04:23:45;98536.66;;;6.81;100.00
50123;BME280;36021;48.670;6.184;2023-03-12T04:26:13;98534.41;;;6.88;100.00
50123;BME280;36021;48.670;6.184;2023-03-12T04:28:39;98535.03;;;6.80;100.00
50123;BME280;36021;48.670;6.184;2023-03-12T04:31:07;98533.34;;;6.84;100.00
50123;BME280;36021;48.670;6.184;2023-03-12T04:33:39;98542.38;;;6.85;100.00
50123;BME280;36021;48.670;6.184;2023-03-12T04:36:07;98540.69;;;6.94;100.00
50123;BME280;36021;48.670;6.184;2023-03-12T04:38:35;98535.47;;;6.97;100.00
50123;BME280;36021;48.670;6.184;2023-03-12T04:41:07;98531.66;;;6.93;100.00
50123;BME280;36021;48.670;6.184;2023-03-12T04:43:34;98543.41;;;6.94;100.00
50123;BME280;36021;48.670;6.184;2023-03-12T04:46:00;98543.94;;;7.01;100.00
50123;BME280;36021;48.670;6.184;2023-03-12T04:48:26;98543.41;;;6.99;100.00
50123;BME280;36021;48.670;6.184;2023-03-12T04:50:52;98541.44;;;7.04;100.00
50123;BME280;36021;48.670;6.184;2023-03-12T04:53:19;98543.09;;;7.05;100.00
50123;BME280;36021;48.670;6.184;2023-03-12T04:55:46;98546.84;;;7.19;100.00
50123;BME280;36021;48.670;6.184;2023-03-12T04:58:13;98541.06;;;7.21;100.00
50123;BME280;36021;48.670;6.184;2023-03-12T05:00:40;98550.94;;;7.17;100.00
50123;BME280;36021;48.670;6.184;2023-03-12T05:03:06;98548.69;;;7.29;100.00
50123;BME280;36021;48.670;6.184;2023-03-12T05:05:34;98549.00;;;7.22;100.00
50123;BME280;36021;48.670;6.184;2023-03-12T05:08:03;98546.53;;;7.21;100.00
50123;BME280;36021;48.670;6.184;2023-03-12T05:10:30;98548.75;;;7.19;100.00
50123;BME280;36021;48.670;6.184;2023-03-12T05:12:56;98552.31;;;7.19;100.00
50123;BME280;36021;48.670;6.184;2023-03-12T05:15:23;98555.59;;;7.21;100.00
50123;BME280;36021;48.670;6.184;2023-03-12T05:17:49;98555.06;;;7.19;100.00
50123;BME280;36021;48.670;6.184;2023-03-12T05:20:15;98554.50;;;7.22;100.00
50123;BME280;36021;48.670;6.184;2023-03-12T05:22:42;98552.91;;;7.16;100.00
50123;BME280;36021;48.670;6.184;2023-03-12T05:25:08;98567.06;;;7.23;100.00
50123;BME280;36021;48.670;6.184;2023-03-12T05:27:34;98561.88;;;7.22;100.00
50123;BME280;36021;48.670;6.184;2023-03-12T05:30:00;98563.53;;;7.23;100.00
50123;BME280;36021;48.670;6.184;2023-03-12T05:32:26;98555.53;;;7.26;100.00
50123;BME280;36021;48.670;6.184;2023-03-12T05:34:52;98564.88;;;7.25;100.00
50123;BME280;36021;48.670;6.184;2023-03-12T05:37:17;98568.16;;;7.27;100.00
50123;BME280;36021;48.670;6.184;2023-03-12T05:39:46;98568.16;;;7.27;100.00
50123;BME280;36021;48.670;6.184;2023-03-12T05:42:15;98559.34;;;7.36;100.00
50123;BME280;36021;48.670;6.184;2023-03-12T05:44:41;98559.34;;;7.36;100.00
50123;BME280;36021;48.670;6.184;2023-03-12T05:47:10;98566.19;;;7.33;100.00
50123;BME280;36021;48.670;6.184;2023-03-12T05:49:38;98573.53;;;7.43;100.00
50123;BME280;36021;48.670;6.184;2023-03-12T05:52:04;98575.97;;;7.49;100.00
50123;BME280;36021;48.670;6.184;2023-03-12T05:54:30;98575.91;;;7.54;100.00
50123;BME280;36021;48.670;6.184;2023-03-12T05:56:57;98583.28;;;7.59;100.00
50123;BME280;36021;48.670;6.184;2023-03-12T05:59:24;98580.78;;;7.62;100.00
50123;BME280;36021;48.670;6.184;2023-03-12T06:01:51;98572.50;;;7.67;100.00
50123;BME280;36021;48.670;6.184;2023-03-12T06:04:18;98591.44;;;7.69;100.00
50123;BME280;36021;48.670;6.184;2023-03-12T06:06:45;98590.28;;;7.75;100.00
50123;BME280;36021;48.670;6.184;2023-03-12T06:09:12;98593.53;;;7.77;100.00
50123;BME280;36021;48.670;6.184;2023-03-12T06:11:38;98600.38;;;7.79;100.00
50123;BME280;36021;48.670;6.184;2023-03-12T06:14:04;98595.09;;;7.88;100.00
50123;BME280;36021;48.670;6.184;2023-03-12T06:16:31;98606.03;;;7.93;100.00
50123;BME280;36021;48.670;6.184;2023-03-12T06:19:00;98611.22;;;7.95;100.00
50123;BME280;36021;48.670;6.184;2023-03-12T06:21:28;98616.72;;;7.95;100.00
50123;BME280;36021;48.670;6.184;2023-03-12T06:23:54;98618.31;;;8.01;100.00
50123;BME280;36021;48.670;6.184;2023-03-12T06:26:36;98625.72;;;8.00;100.00
50123;BME280;36021;48.670;6.184;2023-03-12T06:29:02;98630.34;;;8.05;100.00
50123;BME280;36021;48.670;6.184;2023-03-12T06:31:28;98633.31;;;8.08;100.00
50123;BME280;36021;48.670;6.184;2023-03-12T06:33:54;98637.69;;;8.14;100.00
50123;BME280;36021;48.670;6.184;2023-03-12T06:36:20;98640.44;;;8.09;100.00
50123;BME280;36021;48.670;6.184;2023-03-12T06:38:48;98638.19;;;8.16;100.00
50123;BME280;36021;48.670;6.184;2023-03-12T06:41:16;98632.19;;;8.14;100.00
50123;BME280;36021;48.670;6.184;2023-03-12T06:43:42;98635.44;;;8.16;100.00
50123;BME280;36021;48.670;6.184;2023-03-12T06:46:13;98644.44;;;8.22;100.00
50123;BME280;36021;48.670;6.184;2023-03-12T06:48:39;98646.09;;;8.23;100.00
50123;BME280;36021;48.670;6.184;2023-03-12T06:51:07;98650.19;;;8.25;100.00
50123;BME280;36021;48.670;6.184;2023-03-12T06:53:33;98638.09;;;8.26;100.00
50123;BME280;36021;48.670;6.184;2023-03-12T06:55:59;98643.56;;;8.31;100.00
50123;BME280;36021;48.670;6.184;2023-03-12T06:58:26;98653.41;;;8.38;100.00
50123;BME280;36021;48.670;6.184;2023-03-12T07:00:53;98653.28;;;8.48;100.00
50123;BME280;36021;48.670;6.184;2023-03-12T07:03:20;98661.41;;;8.58;100.00
50123;BME280;36021;48.670;6.184;2023-03-12T07:05:48;98659.03;;;8.75;100.00
50123;BME280;36021;48.670;6.184;2023-03-12T07:08:15;98663.59;;;8.84;100.00
50123;BME280;36021;48.670;6.184;2023-03-12T07:10:42;98669.22;;;8.98;100.00
50123;BME280;36021;48.670;6.184;2023-03-12T07:13:07;98670.38;;;8.92;100.00
50123;BME280;36021;48.670;6.184;2023-03-12T07:15:33;98670.66;;;8.90;100.00
50123;BME280;36021;48.670;6.184;2023-03-12T07:18:00;98673.19;;;8.87;100.00
50123;BME280;36021;48.670;6.184;2023-03-12T07:20:26;98678.97;;;8.85;100.00
50123;BME280;36021;48.670;6.184;2023-03-12T07:22:51;98672.16;;;8.83;100.00
50123;BME280;36021;48.670;6.184;2023-03-12T07:25:17;98681.16;;;8.88;100.00
50123;BME280;36021;48.670;6.184;2023-03-12T07:27:43;98684.72;;;8.89;100.00
50123;BME280;36021;48.670;6.184;2023-03-12T07:30:09;98689.66;;;8.87;100.00
50123;BME280;36021;48.670;6.184;2023-03-12T07:32:35;98681.16;;;8.88;100.00
50123;BME280;36021;48.670;6.184;2023-03-12T07:35:02;98693.38;;;9.01;100.00
50123;BME280;36021;48.670;6.184;2023-03-12T07:37:28;98691.91;;;9.09;100.00
50123;BME280;36021;48.670;6.184;2023-03-12T07:39:54;98689.38;;;9.12;100.00
50123;BME280;36021;48.670;6.184;2023-03-12T07:42:21;98685.97;;;9.20;100.00
50123;BME280;36021;48.670;6.184;2023-03-12T07:44:47;98683.09;;;9.30;100.00
50123;BME280;36021;48.670;6.184;2023-03-12T07:47:13;98683.09;;;9.30;100.00
50123;BME280;36021;48.670;6.184;2023-03-12T07:49:39;98678.41;;;9.31;100.00
50123;BME280;36021;48.670;6.184;2023-03-12T07:52:07;98676.41;;;9.36;100.00
50123;BME280;36021;48.670;6.184;2023-03-12T07:54:37;98667.44;;;9.50;100.00
50123;BME280;36021;48.670;6.184;2023-03-12T07:57:04;98671.09;;;9.64;100.00
50123;BME280;36021;48.670;6.184;2023-03-12T07:59:30;98667.88;;;9.75;100.00
50123;BME280;36021;48.670;6.184;2023-03-12T08:01:56;98677.59;;;10.05;100.00
50123;BME280;36021;48.670;6.184;2023-03-12T08:04:21;98665.91;;;10.32;100.00
50123;BME280;36021;48.670;6.184;2023-03-12T08:06:49;98662.50;;;10.81;100.00
50123;BME280;36021;48.670;6.184;2023-03-12T08:09:15;98660.66;;;10.90;100.00
50123;BME280;36021;48.670;6.184;2023-03-12T08:11:41;98664.75;;;11.33;100.00
50123;BME280;36021;48.670;6.184;2023-03-12T08:14:06;98669.41;;;11.60;100.00
50123;BME280;36021;48.670;6.184;2023-03-12T08:16:32;98664.72;;;12.19;100.00
50123;BME280;36021;48.670;6.184;2023-03-12T08:18:58;98660.72;;;12.25;100.00
50123;BME280;36021;48.670;6.184;2023-03-12T08:21:24;98639.00;;;14.19;100.00
50123;BME280;36021;48.670;6.184;2023-03-12T08:23:49;98654.47;;;13.68;100.00
50123;BME280;36021;48.670;6.184;2023-03-12T08:26:15;98648.66;;;13.87;100.00
50123;BME280;36021;48.670;6.184;2023-03-12T08:28:41;98657.88;;;14.59;100.00
50123;BME280;36021;48.670;6.184;2023-03-12T08:31:07;98660.63;;;13.39;100.00
50123;BME280;36021;48.670;6.184;2023-03-12T08:33:34;98661.53;;;12.78;100.00
50123;BME280;36021;48.670;6.184;2023-03-12T08:36:00;98673.94;;;12.14;100.00
50123;BME280;36021;48.670;6.184;2023-03-12T08:38:25;98696.25;;;11.68;100.00
50123;BME280;36021;48.670;6.184;2023-03-12T08:40:55;98696.81;;;11.43;100.00
50123;BME280;36021;48.670;6.184;2023-03-12T08:43:21;98700.03;;;11.09;100.00
50123;BME280;36021;48.670;6.184;2023-03-12T08:45:55;98707.34;;;10.73;100.00
50123;BME280;36021;48.670;6.184;2023-03-12T08:48:21;98727.41;;;10.60;100.00
50123;BME280;36021;48.670;6.184;2023-03-12T08:50:47;98725.81;;;10.40;100.00
50123;BME280;36021;48.670;6.184;2023-03-12T08:53:12;98752.78;;;10.24;100.00
50123;BME280;36021;48.670;6.184;2023-03-12T08:55:38;98740.97;;;10.24;100.00
50123;BME280;36021;48.670;6.184;2023-03-12T08:58:05;98757.66;;;10.09;100.00
50123;BME280;36021;48.670;6.184;2023-03-12T09:00:31;98763.16;;;10.09;100.00
50123;BME280;36021;48.670;6.184;2023-03-12T09:02:56;98757.31;;;10.15;100.00
50123;BME280;36021;48.670;6.184;2023-03-12T09:05:24;98756.34;;;10.06;100.00
50123;BME280;36021;48.670;6.184;2023-03-12T09:07:51;98758.47;;;10.14;100.00
50123;BME280;36021;48.670;6.184;2023-03-12T09:10:17;98764.22;;;10.31;100.00
50123;BME280;36021;48.670;6.184;2023-03-12T09:12:43;98759.81;;;10.49;100.00
50123;BME280;36021;48.670;6.184;2023-03-12T09:15:09;98774.00;;;10.75;100.00
50123;BME280;36021;48.670;6.184;2023-03-12T09:17:36;98751.25;;;10.83;100.00
50123;BME280;36021;48.670;6.184;2023-03-12T09:20:03;98753.72;;;10.98;100.00
50123;BME280;36021;48.670;6.184;2023-03-12T09:22:33;98759.75;;;11.68;100.00
50123;BME280;36021;48.670;6.184;2023-03-12T09:25:05;98754.56;;;11.53;100.00
50123;BME280;36021;48.670;6.184;2023-03-12T09:27:37;98750.25;;;12.24;100.00
50123;BME280;36021;48.670;6.184;2023-03-12T09:30:05;98741.78;;;12.65;100.00
50123;BME280;36021;48.670;6.184;2023-03-12T09:32:31;98734.13;;;12.62;100.00
50123;BME280;36021;48.670;6.184;2023-03-12T09:34:57;98729.84;;;12.78;100.00
50123;BME280;36021;48.670;6.184;2023-03-12T09:37:23;98735.06;;;12.57;100.00
50123;BME280;36021;48.670;6.184;2023-03-12T09:39:50;98748.19;;;12.74;100.00
50123;BME280;36021;48.670;6.184;2023-03-12T09:42:23;98766.03;;;12.45;100.00
50123;BME280;36021;48.670;6.184;2023-03-12T09:44:51;98776.13;;;11.78;100.00
50123;BME280;36021;48.670;6.184;2023-03-12T09:47:28;98782.28;;;11.75;100.00
50123;BME280;36021;48.670;6.184;2023-03-12T09:50:04;98789.72;;;11.47;100.00
50123;BME280;36021;48.670;6.184;2023-03-12T09:52:52;98790.53;;;11.62;100.00
50123;BME280;36021;48.670;6.184;2023-03-12T09:55:20;98790.75;;;11.79;100.00
50123;BME280;36021;48.670;6.184;2023-03-12T09:57:48;98787.78;;;11.89;100.00
50123;BME280;36021;48.670;6.184;2023-03-12T10:00:26;98793.78;;;12.05;100.00
50123;BME280;36021;48.670;6.184;2023-03-12T10:05:45;98797.72;;;12.39;100.00
50123;BME280;36021;48.670;6.184;2023-03-12T10:08:24;98790.44;;;12.66;100.00
50123;BME280;36021;48.670;6.184;2023-03-12T10:11:01;98777.09;;;14.08;100.00
50123;BME280;36021;48.670;6.184;2023-03-12T10:13:43;98776.94;;;15.92;100.00
50123;BME280;36021;48.670;6.184;2023-03-12T10:22:24;98743.00;;;21.24;100.00
50123;BME280;36021;48.670;6.184;2023-03-12T10:25:09;98761.91;;;20.69;100.00
50123;BME280;36021;48.670;6.184;2023-03-12T10:27:39;98766.78;;;21.11;100.00
50123;BME280;36021;48.670;6.184;2023-03-12T10:30:17;98759.81;;;22.67;100.00
50123;BME280;36021;48.670;6.184;2023-03-12T10:32:49;98756.00;;;20.55;100.00
50123;BME280;36021;48.670;6.184;2023-03-12T10:35:18;98751.13;;;19.08;100.00
50123;BME280;36021;48.670;6.184;2023-03-12T10:37:55;98759.59;;;17.92;100.00
50123;BME280;36021;48.670;6.184;2023-03-12T10:40:26;98778.41;;;16.60;100.00
50123;BME280;36021;48.670;6.184;2023-03-12T10:42:52;98771.91;;;14.32;100.00
50123;BME280;36021;48.670;6.184;2023-03-12T10:48:06;98779.09;;;13.60;100.00
50123;BME280;36021;48.670;6.184;2023-03-12T10:50:35;98767.09;;;15.94;100.00
50123;BME280;36021;48.670;6.184;2023-03-12T10:53:18;98783.81;;;15.01;100.00
50123;BME280;36021;48.670;6.184;2023-03-12T10:55:57;98765.22;;;14.25;100.00
50123;BME280;36021;48.670;6.184;2023-03-12T10:58:24;98766.22;;;14.72;100.00
50123;BME280;36021;48.670;6.184;2023-03-12T11:00:58;98768.50;;;16.50;100.00
50123;BME280;36021;48.670;6.184;2023-03-12T11:03:26;98754.56;;;19.76;100.00
50123;BME280;36021;48.670;6.184;2023-03-12T11:05:55;98756.09;;;17.70;100.00
50123;BME280;36021;48.670;6.184;2023-03-12T11:08:28;98778.28;;;16.56;100.00
50123;BME280;36021;48.670;6.184;2023-03-12T11:10:56;98767.53;;;16.05;100.00
50123;BME280;36021;48.670;6.184;2023-03-12T11:15:48;98767.50;;;14.31;100.00
50123;BME280;36021;48.670;6.184;2023-03-12T11:21:18;98763.72;;;13.93;100.00
50123;BME280;36021;48.670;6.184;2023-03-12T11:24:08;98769.19;;;14.49;100.00
50123;BME280;36021;48.670;6.184;2023-03-12T11:26:38;98775.97;;;14.95;100.00
50123;BME280;36021;48.670;6.184;2023-03-12T11:29:37;98756.72;;;16.86;100.00
50123;BME280;36021;48.670;6.184;2023-03-12T11:32:23;98766.78;;;17.68;100.00
50123;BME280;36021;48.670;6.184;2023-03-12T11:34:50;98765.88;;;19.36;100.00
50123;BME280;36021;48.670;6.184;2023-03-12T11:37:39;98752.91;;;21.18;100.00
50123;BME280;36021;48.670;6.184;2023-03-12T11:40:17;98765.81;;;21.03;100.00
50123;BME280;36021;48.670;6.184;2023-03-12T11:46:10;98763.16;;;19.40;100.00
50123;BME280;36021;48.670;6.184;2023-03-12T11:51:32;98774.22;;;16.75;100.00
50123;BME280;36021;48.670;6.184;2023-03-12T11:56:52;98770.50;;;15.24;100.00
50123;BME280;36021;48.670;6.184;2023-03-12T11:59:42;98781.13;;;15.98;100.00
50123;BME280;36021;48.670;6.184;2023-03-12T12:02:30;98781.16;;;16.69;100.00
50123;BME280;36021;48.670;6.184;2023-03-12T12:14:28;98743.81;;;15.49;100.00
50123;BME280;36021;48.670;6.184;2023-03-12T12:17:10;98734.88;;;15.26;100.00
50123;BME280;36021;48.670;6.184;2023-03-12T12:20:16;98750.06;;;14.56;100.00
50123;BME280;36021;48.670;6.184;2023-03-12T12:23:26;98739.31;;;14.38;100.00
50123;BME280;36021;48.670;6.184;2023-03-12T12:26:08;98737.94;;;13.84;100.00
50123;BME280;36021;48.670;6.184;2023-03-12T12:31:44;98741.19;;;13.86;100.00
50123;BME280;36021;48.670;6.184;2023-03-12T12:36:38;98729.97;;;13.99;100.00
50123;BME280;36021;48.670;6.184;2023-03-12T12:39:09;98751.56;;;13.63;100.00
50123;BME280;36021;48.670;6.184;2023-03-12T12:41:43;98747.91;;;13.45;100.00
50123;BME280;36021;48.670;6.184;2023-03-12T12:44:12;98744.34;;;13.45;100.00
50123;BME280;36021;48.670;6.184;2023-03-12T12:46:46;98733.13;;;13.50;100.00
50123;BME280;36021;48.670;6.184;2023-03-12T12:49:20;98722.16;;;13.93;100.00
50123;BME280;36021;48.670;6.184;2023-03-12T12:52:00;98722.47;;;14.17;100.00
50123;BME280;36021;48.670;6.184;2023-03-12T12:54:46;98722.47;;;13.91;100.00
50123;BME280;36021;48.670;6.184;2023-03-12T13:02:31;98696.25;;;15.50;100.00
50123;BME280;36021;48.670;6.184;2023-03-12T13:04:59;98700.66;;;16.01;100.00
50123;BME280;36021;48.670;6.184;2023-03-12T13:09:53;98701.09;;;15.24;100.00
50123;BME280;36021;48.670;6.184;2023-03-12T13:12:30;98694.97;;;15.01;100.00
50123;BME280;36021;48.670;6.184;2023-03-12T13:14:58;98701.81;;;15.04;100.00
50123;BME280;36021;48.670;6.184;2023-03-12T13:17:35;98703.19;;;15.65;100.00
50123;BME280;36021;48.670;6.184;2023-03-12T13:20:16;98716.16;;;15.06;100.00
50123;BME280;36021;48.670;6.184;2023-03-12T13:33:47;98702.72;;;14.79;100.00
50123;BME280;36021;48.670;6.184;2023-03-12T13:41:30;98696.69;;;14.59;100.00
50123;BME280;36021;48.670;6.184;2023-03-12T13:43:57;98708.97;;;14.41;100.00
50123;BME280;36021;48.670;6.184;2023-03-12T13:46:34;98697.88;;;14.58;100.00
50123;BME280;36021;48.670;6.184;2023-03-12T13:49:05;98690.63;;;14.83;100.00
50123;BME280;36021;48.670;6.184;2023-03-12T13:51:42;98684.81;;;15.43;100.00
50123;BME280;36021;48.670;6.184;2023-03-12T13:54:17;98688.00;;;15.62;100.00
50123;BME280;36021;48.670;6.184;2023-03-12T13:56:55;98685.41;;;15.57;100.00
50123;BME280;36021;48.670;6.184;2023-03-12T13:59:23;98684.69;;;15.69;100.00
50123;BME280;36021;48.670;6.184;2023-03-12T14:01:55;98694.78;;;16.03;100.00
50123;BME280;36021;48.670;6.184;2023-03-12T14:04:31;98673.63;;;16.43;100.00
50123;BME280;36021;48.670;6.184;2023-03-12T14:07:18;98685.84;;;16.72;100.00
50123;BME280;36021;48.670;6.184;2023-03-12T14:12:54;98694.09;;;16.92;100.00
50123;BME280;36021;48.670;6.184;2023-03-12T14:15:55;98691.88;;;16.53;100.00